sensor_id;sensor_type;location;lat;lon;timestamp;P1;durP1;ratioP1;P2;durP2;ratioP2
5341;SDS011;2693;48.822;9.062;2024-01-15T00:01:06;16.23;;;8.00;;
5341;SDS011;2693;48.822;9.062;2024-01-15T00:03:32;17.73;;;7.27;;
5341;SDS011;2693;48.822;9.062;2024-01-15T00:05:57;17.43;;;7.33;;
5341;SDS011;2693;48.822;9.062;2024-01-15T00:08:22;16.23;;;6.97;;
5341;SDS011;2693;48.822;9.062;2024-01-15T00:10:48;14.77;;;7.00;;
5341;SDS011;2693;48.822;9.062;2024-01-15T00:13:13;17.30;;;7.20;;
5341;SDS011;2693;48.822;9.062;2024-01-15T00:15:38;17.60;;;7.87;;
5341;SDS011;2693;48.822;9.062;2024-01-15T00:18:04;18.70;;;8.20;;
5341;SDS011;2693;48.822;9.062;2024-01-15T00:20:30;14.57;;;7.37;;
5341;SDS011;2693;48.822;9.062;2024-01-15T00:22:55;14.00;;;7.00;;
5341;SDS011;2693;48.822;9.062;2024-01-15T00:25:21;17.97;;;7.77;;
5341;SDS011;2693;48.822;9.062;2024-01-15T00:27:46;15.50;;;7.20;;
5341;SDS011;2693;48.822;9.062;2024-01-15T00:30:12;18.73;;;7.30;;
5341;SDS011;2693;48.822;9.062;2024-01-15T00:32:37;16.90;;;7.33;;
5341;SDS011;2693;48.822;9.062;2024-01-15T00:35:03;14.53;;;7.17;;
5341;SDS011;2693;48.822;9.062;2024-01-15T00:37:28;15.90;;;7.83;;
5341;SDS011;2693;48.822;9.062;2024-01-15T00:39:54;13.90;;;6.13;;
5341;SDS011;2693;48.822;9.062;2024-01-15T00:42:19;16.93;;;7.10;;
5341;SDS011;2693;48.822;9.062;2024-01-15T00:44:44;14.13;;;7.43;;
5341;SDS011;2693;48.822;9.062;2024-01-15T00:47:10;14.63;;;6.83;;
5341;SDS011;2693;48.822;9.062;2024-01-15T00:49:35;12.47;;;6.23;;
5341;SDS011;2693;48.822;9.062;2024-01-15T00:52:00;12.07;;;7.00;;
5341;SDS011;2693;48.822;9.062;2024-01-15T00:54:26;14.17;;;7.10;;
5341;SDS011;2693;48.822;9.062;2024-01-15T00:56:51;16.43;;;7.50;;
5341;SDS011;2693;48.822;9.062;2024-01-15T00:59:17;15.97;;;6.77;;
5341;SDS011;2693;48.822;9.062;2024-01-15T01:01:42;15.07;;;7.30;;
5341;SDS011;2693;48.822;9.062;2024-01-15T01:04:09;13.47;;;6.33;;
5341;SDS011;2693;48.822;9.062;2024-01-15T01:06:35;15.33;;;6.90;;
5341;SDS011;2693;48.822;9.062;2024-01-15T01:09:00;16.97;;;7.20;;
5341;SDS011;2693;48.822;9.062;2024-01-15T01:11:26;13.70;;;7.03;;
5341;SDS011;2693;48.822;9.062;2024-01-15T01:13:51;19.23;;;6.60;;
5341;SDS011;2693;48.822;9.062;2024-01-15T01:16:16;14.90;;;6.80;;
5341;SDS011;2693;48.822;9.062;2024-01-15T01:18:42;15.83;;;6.90;;
5341;SDS011;2693;48.822;9.062;2024-01-15T01:21:07;16.43;;;7.33;;
5341;SDS011;2693;48.822;9.062;2024-01-15T01:23:32;15.57;;;6.13;;
5341;SDS011;2693;48.822;9.062;2024-01-15T01:25:58;17.50;;;6.97;;
5341;SDS011;2693;48.822;9.062;2024-01-15T01:28:23;14.03;;;6.37;;
5341;SDS011;2693;48.822;9.062;2024-01-15T01:30:48;15.77;;;6.43;;
5341;SDS011;2693;48.822;9.062;2024-01-15T01:33:14;15.87;;;6.97;;
5341;SDS011;2693;48.822;9.062;2024-01-15T01:35:39;13.97;;;6.43;;
5341;SDS011;2693;48.822;9.062;2024-01-15T01:38:04;16.57;;;6.93;;
5341;SDS011;2693;48.822;9.062;2024-01-15T01:40:30;13.93;;;6.73;;
5341;SDS011;2693;48.822;9.062;2024-01-15T01:42:55;16.60;;;6.97;;
5341;SDS011;2693;48.822;9.062;2024-01-15T01:45:21;13.23;;;6.43;;
5341;SDS011;2693;48.822;9.062;2024-01-15T01:47:46;12.27;;;6.47;;
5341;SDS011;2693;48.822;9.062;2024-01-15T01:50:11;13.20;;;6.20;;
5341;SDS011;2693;48.822;9.062;2024-01-15T01:52:37;14.07;;;5.77;;
5341;SDS011;2693;48.822;9.062;2024-01-15T01:55:03;12.07;;;5.50;;
5341;SDS011;2693;48.822;9.062;2024-01-15T01:57:30;11.67;;;6.13;;
5341;SDS011;2693;48.822;9.062;2024-01-15T01:59:56;10.67;;;5.83;;
5341;SDS011;2693;48.822;9.062;2024-01-15T02:02:21;12.50;;;6.17;;
5341;SDS011;2693;48.822;9.062;2024-01-15T02:04:47;12.10;;;6.77;;
5341;SDS011;2693;48.822;9.062;2024-01-15T02:07:14;14.73;;;6.87;;
5341;SDS011;2693;48.822;9.062;2024-01-15T02:09:42;12.73;;;6.07;;
5341;SDS011;2693;48.822;9.062;2024-01-15T02:12:09;12.07;;;6.60;;
5341;SDS011;2693;48.822;9.062;2024-01-15T02:14:34;12.47;;;6.83;;
5341;SDS011;2693;48.822;9.062;2024-01-15T02:17:00;14.80;;;6.57;;
5341;SDS011;2693;48.822;9.062;2024-01-15T02:19:25;10.60;;;5.47;;
5341;SDS011;2693;48.822;9.062;2024-01-15T02:21:50;11.90;;;6.20;;
5341;SDS011;2693;48.822;9.062;2024-01-15T02:24:16;12.30;;;6.37;;
5341;SDS011;2693;48.822;9.062;2024-01-15T02:26:41;15.97;;;6.27;;
5341;SDS011;2693;48.822;9.062;2024-01-15T02:29:07;12.90;;;6.40;;
5341;SDS011;2693;48.822;9.062;2024-01-15T02:31:34;15.10;;;5.90;;
5341;SDS011;2693;48.822;9.062;2024-01-15T02:34:00;13.17;;;6.33;;
5341;SDS011;2693;48.822;9.062;2024-01-15T02:36:26;12.60;;;5.80;;
5341;SDS011;2693;48.822;9.062;2024-01-15T02:38:51;14.90;;;6.47;;
5341;SDS011;2693;48.822;9.062;2024-01-15T02:41:17;12.87;;;5.97;;
5341;SDS011;2693;48.822;9.062;2024-01-15T02:43:42;11.43;;;5.70;;
5341;SDS011;2693;48.822;9.062;2024-01-15T02:46:07;14.27;;;6.27;;
5341;SDS011;2693;48.822;9.062;2024-01-15T02:48:33;13.00;;;6.67;;
5341;SDS011;2693;48.822;9.062;2024-01-15T02:51:00;15.23;;;6.03;;
5341;SDS011;2693;48.822;9.062;2024-01-15T02:53:25;14.97;;;6.17;;
5341;SDS011;2693;48.822;9.062;2024-01-15T02:55:51;12.90;;;6.33;;
5341;SDS011;2693;48.822;9.062;2024-01-15T02:58:16;12.00;;;5.97;;
5341;SDS011;2693;48.822;9.062;2024-01-15T03:00:41;13.97;;;6.10;;
5341;SDS011;2693;48.822;9.062;2024-01-15T03:03:07;13.43;;;6.40;;
5341;SDS011;2693;48.822;9.062;2024-01-15T03:05:33;12.67;;;6.27;;
5341;SDS011;2693;48.822;9.062;2024-01-15T03:07:58;11.83;;;6.47;;
5341;SDS011;2693;48.822;9.062;2024-01-15T03:10:23;11.17;;;6.27;;
5341;SDS011;2693;48.822;9.062;2024-01-15T03:12:49;13.87;;;6.17;;
5341;SDS011;2693;48.822;9.062;2024-01-15T03:15:14;11.23;;;5.73;;
5341;SDS011;2693;48.822;9.062;2024-01-15T03:17:41;12.03;;;5.30;;
5341;SDS011;2693;48.822;9.062;2024-01-15T03:20:07;13.50;;;6.03;;
5341;SDS011;2693;48.822;9.062;2024-01-15T03:22:33;15.17;;;6.27;;
5341;SDS011;2693;48.822;9.062;2024-01-15T03:24:58;11.97;;;6.07;;
5341;SDS011;2693;48.822;9.062;2024-01-15T03:27:24;11.90;;;5.97;;
5341;SDS011;2693;48.822;9.062;2024-01-15T03:29:50;11.93;;;6.20;;
5341;SDS011;2693;48.822;9.062;2024-01-15T03:32:16;13.43;;;5.57;;
5341;SDS011;2693;48.822;9.062;2024-01-15T03:34:41;12.33;;;6.07;;
5341;SDS011;2693;48.822;9.062;2024-01-15T03:37:09;12.53;;;6.43;;
5341;SDS011;2693;48.822;9.062;2024-01-15T03:39:34;9.37;;;5.03;;
5341;SDS011;2693;48.822;9.062;2024-01-15T03:42:00;10.57;;;5.33;;
5341;SDS011;2693;48.822;9.062;2024-01-15T03:44:25;13.30;;;6.17;;
5341;SDS011;2693;48.822;9.062;2024-01-15T03:46:50;11.67;;;5.10;;
5341;SDS011;2693;48.822;9.062;2024-01-15T03:49:16;12.13;;;5.43;;
5341;SDS011;2693;48.822;9.062;2024-01-15T03:51:41;11.80;;;5.43;;
5341;SDS011;2693;48.822;9.062;2024-01-15T03:54:06;10.60;;;5.77;;
5341;SDS011;2693;48.822;9.062;2024-01-15T03:56:32;9.10;;;4.60;;
5341;SDS011;2693;48.822;9.062;2024-01-15T03:58:57;9.17;;;4.90;;
5341;SDS011;2693;48.822;9.062;2024-01-15T04:01:23;11.03;;;5.37;;
5341;SDS011;2693;48.822;9.062;2024-01-15T04:03:48;10.13;;;5.73;;
5341;SDS011;2693;48.822;9.062;2024-01-15T04:06:13;10.93;;;5.30;;
5341;SDS011;2693;48.822;9.062;2024-01-15T04:08:39;11.00;;;4.30;;
5341;SDS011;2693;48.822;9.062;2024-01-15T04:11:04;7.20;;;4.77;;
5341;SDS011;2693;48.822;9.062;2024-01-15T04:13:32;10.37;;;4.30;;
5341;SDS011;2693;48.822;9.062;2024-01-15T04:15:57;7.93;;;4.63;;
5341;SDS011;2693;48.822;9.062;2024-01-15T04:18:23;9.37;;;4.80;;
5341;SDS011;2693;48.822;9.062;2024-01-15T04:20:48;7.80;;;5.03;;
5341;SDS011;2693;48.822;9.062;2024-01-15T04:23:13;9.27;;;5.10;;
5341;SDS011;2693;48.822;9.062;2024-01-15T04:25:39;8.97;;;5.00;;
5341;SDS011;2693;48.822;9.062;2024-01-15T04:28:07;11.10;;;5.27;;
5341;SDS011;2693;48.822;9.062;2024-01-15T04:30:33;9.57;;;5.43;;
5341;SDS011;2693;48.822;9.062;2024-01-15T04:32:58;8.60;;;5.57;;
5341;SDS011;2693;48.822;9.062;2024-01-15T04:35:24;9.23;;;5.07;;
5341;SDS011;2693;48.822;9.062;2024-01-15T04:37:49;11.07;;;5.23;;
5341;SDS011;2693;48.822;9.062;2024-01-15T04:40:14;9.13;;;4.57;;
5341;SDS011;2693;48.822;9.062;2024-01-15T04:42:40;8.93;;;4.97;;
5341;SDS011;2693;48.822;9.062;2024-01-15T04:45:05;12.13;;;5.57;;
5341;SDS011;2693;48.822;9.062;2024-01-15T04:47:31;11.50;;;4.60;;
5341;SDS011;2693;48.822;9.062;2024-01-15T04:49:56;9.80;;;4.90;;
5341;SDS011;2693;48.822;9.062;2024-01-15T04:52:21;9.57;;;5.00;;
5341;SDS011;2693;48.822;9.062;2024-01-15T04:54:47;9.50;;;4.80;;
5341;SDS011;2693;48.822;9.062;2024-01-15T04:57:12;10.90;;;5.70;;
5341;SDS011;2693;48.822;9.062;2024-01-15T04:59:37;9.47;;;4.93;;
5341;SDS011;2693;48.822;9.062;2024-01-15T05:02:03;8.43;;;4.73;;
5341;SDS011;2693;48.822;9.062;2024-01-15T05:04:28;10.67;;;5.67;;
5341;SDS011;2693;48.822;9.062;2024-01-15T05:06:55;10.57;;;4.80;;
5341;SDS011;2693;48.822;9.062;2024-01-15T05:09:20;10.30;;;5.07;;
5341;SDS011;2693;48.822;9.062;2024-01-15T05:11:45;9.67;;;5.37;;
5341;SDS011;2693;48.822;9.062;2024-01-15T05:14:11;9.23;;;5.60;;
5341;SDS011;2693;48.822;9.062;2024-01-15T05:16:39;9.03;;;4.70;;
5341;SDS011;2693;48.822;9.062;2024-01-15T05:19:11;10.73;;;5.23;;
5341;SDS011;2693;48.822;9.062;2024-01-15T05:21:36;11.90;;;6.17;;
5341;SDS011;2693;48.822;9.062;2024-01-15T05:24:02;12.37;;;6.33;;
5341;SDS011;2693;48.822;9.062;2024-01-15T05:26:27;13.93;;;6.40;;
5341;SDS011;2693;48.822;9.062;2024-01-15T05:28:52;9.77;;;5.43;;
5341;SDS011;2693;48.822;9.062;2024-01-15T05:31:18;11.43;;;5.53;;
5341;SDS011;2693;48.822;9.062;2024-01-15T05:33:43;10.80;;;6.07;;
5341;SDS011;2693;48.822;9.062;2024-01-15T05:36:08;10.70;;;5.50;;
5341;SDS011;2693;48.822;9.062;2024-01-15T05:38:34;11.47;;;5.60;;
5341;SDS011;2693;48.822;9.062;2024-01-15T05:40:59;11.97;;;6.03;;
5341;SDS011;2693;48.822;9.062;2024-01-15T05:43:24;10.80;;;5.63;;
5341;SDS011;2693;48.822;9.062;2024-01-15T05:45:50;10.97;;;5.77;;
5341;SDS011;2693;48.822;9.062;2024-01-15T05:48:15;10.17;;;5.23;;
5341;SDS011;2693;48.822;9.062;2024-01-15T05:50:41;8.53;;;4.87;;
5341;SDS011;2693;48.822;9.062;2024-01-15T05:53:06;10.37;;;5.47;;
5341;SDS011;2693;48.822;9.062;2024-01-15T05:55:32;9.93;;;5.57;;
5341;SDS011;2693;48.822;9.062;2024-01-15T05:57:57;7.97;;;5.00;;
5341;SDS011;2693;48.822;9.062;2024-01-15T06:00:22;8.90;;;5.30;;
5341;SDS011;2693;48.822;9.062;2024-01-15T06:02:48;7.63;;;4.83;;
5341;SDS011;2693;48.822;9.062;2024-01-15T06:05:13;10.27;;;4.90;;
5341;SDS011;2693;48.822;9.062;2024-01-15T06:07:38;7.83;;;5.03;;
5341;SDS011;2693;48.822;9.062;2024-01-15T06:10:04;10.23;;;5.07;;
5341;SDS011;2693;48.822;9.062;2024-01-15T06:12:30;11.67;;;4.77;;
5341;SDS011;2693;48.822;9.062;2024-01-15T06:14:56;7.77;;;4.77;;
5341;SDS011;2693;48.822;9.062;2024-01-15T06:17:21;11.97;;;6.13;;
5341;SDS011;2693;48.822;9.062;2024-01-15T06:19:46;8.37;;;5.07;;
5341;SDS011;2693;48.822;9.062;2024-01-15T06:22:12;9.73;;;5.33;;
5341;SDS011;2693;48.822;9.062;2024-01-15T06:24:37;10.67;;;5.40;;
5341;SDS011;2693;48.822;9.062;2024-01-15T06:27:02;13.77;;;5.47;;
5341;SDS011;2693;48.822;9.062;2024-01-15T06:29:28;9.63;;;5.63;;
5341;SDS011;2693;48.822;9.062;2024-01-15T06:31:53;10.67;;;5.73;;
5341;SDS011;2693;48.822;9.062;2024-01-15T06:34:19;8.73;;;5.30;;
5341;SDS011;2693;48.822;9.062;2024-01-15T06:36:44;14.70;;;6.20;;
5341;SDS011;2693;48.822;9.062;2024-01-15T06:39:10;10.63;;;5.80;;
5341;SDS011;2693;48.822;9.062;2024-01-15T06:41:35;10.70;;;5.10;;
5341;SDS011;2693;48.822;9.062;2024-01-15T06:44:06;9.00;;;5.20;;
5341;SDS011;2693;48.822;9.062;2024-01-15T06:46:32;9.80;;;5.90;;
5341;SDS011;2693;48.822;9.062;2024-01-15T06:48:57;8.97;;;5.37;;
5341;SDS011;2693;48.822;9.062;2024-01-15T06:51:22;11.10;;;5.77;;
5341;SDS011;2693;48.822;9.062;2024-01-15T06:53:48;10.17;;;5.23;;
5341;SDS011;2693;48.822;9.062;2024-01-15T06:56:13;10.17;;;5.27;;
5341;SDS011;2693;48.822;9.062;2024-01-15T06:58:38;9.17;;;5.20;;
5341;SDS011;2693;48.822;9.062;2024-01-15T07:01:04;8.50;;;5.03;;
5341;SDS011;2693;48.822;9.062;2024-01-15T07:03:29;8.53;;;4.80;;
5341;SDS011;2693;48.822;9.062;2024-01-15T07:05:55;9.47;;;5.20;;
5341;SDS011;2693;48.822;9.062;2024-01-15T07:08:20;9.80;;;4.87;;
5341;SDS011;2693;48.822;9.062;2024-01-15T07:10:45;9.40;;;5.83;;
5341;SDS011;2693;48.822;9.062;2024-01-15T07:13:11;9.40;;;5.47;;
5341;SDS011;2693;48.822;9.062;2024-01-15T07:15:36;7.77;;;4.77;;
5341;SDS011;2693;48.822;9.062;2024-01-15T07:18:01;7.67;;;5.30;;
5341;SDS011;2693;48.822;9.062;2024-01-15T07:20:27;7.87;;;4.60;;
5341;SDS011;2693;48.822;9.062;2024-01-15T07:22:52;8.23;;;5.67;;
5341;SDS011;2693;48.822;9.062;2024-01-15T07:25:17;10.73;;;5.73;;
5341;SDS011;2693;48.822;9.062;2024-01-15T07:27:43;10.20;;;5.30;;
5341;SDS011;2693;48.822;9.062;2024-01-15T07:30:10;7.53;;;4.87;;
5341;SDS011;2693;48.822;9.062;2024-01-15T07:32:36;6.27;;;4.63;;
5341;SDS011;2693;48.822;9.062;2024-01-15T07:35:02;9.07;;;4.80;;
5341;SDS011;2693;48.822;9.062;2024-01-15T07:37:27;8.63;;;5.10;;
5341;SDS011;2693;48.822;9.062;2024-01-15T07:39:53;9.93;;;4.60;;
5341;SDS011;2693;48.822;9.062;2024-01-15T07:42:18;9.13;;;4.27;;
5341;SDS011;2693;48.822;9.062;2024-01-15T07:44:44;7.47;;;4.63;;
5341;SDS011;2693;48.822;9.062;2024-01-15T07:47:10;8.17;;;4.40;;
5341;SDS011;2693;48.822;9.062;2024-01-15T07:49:35;6.70;;;4.20;;
5341;SDS011;2693;48.822;9.062;2024-01-15T07:52:00;11.43;;;5.10;;
5341;SDS011;2693;48.822;9.062;2024-01-15T07:54:26;10.20;;;4.47;;
5341;SDS011;2693;48.822;9.062;2024-01-15T07:56:59;9.70;;;4.73;;
5341;SDS011;2693;48.822;9.062;2024-01-15T07:59:26;8.30;;;4.47;;
5341;SDS011;2693;48.822;9.062;2024-01-15T08:01:52;9.07;;;4.00;;
5341;SDS011;2693;48.822;9.062;2024-01-15T08:04:17;5.90;;;4.37;;
5341;SDS011;2693;48.822;9.062;2024-01-15T08:06:43;8.07;;;4.67;;
5341;SDS011;2693;48.822;9.062;2024-01-15T08:09:09;8.40;;;4.13;;
5341;SDS011;2693;48.822;9.062;2024-01-15T08:11:34;7.97;;;4.23;;
5341;SDS011;2693;48.822;9.062;2024-01-15T08:14:00;10.90;;;4.43;;
5341;SDS011;2693;48.822;9.062;2024-01-15T08:16:26;8.70;;;4.50;;
5341;SDS011;2693;48.822;9.062;2024-01-15T08:18:52;11.27;;;4.93;;
5341;SDS011;2693;48.822;9.062;2024-01-15T08:21:18;7.27;;;3.97;;
5341;SDS011;2693;48.822;9.062;2024-01-15T08:23:43;6.93;;;4.47;;
5341;SDS011;2693;48.822;9.062;2024-01-15T08:26:09;6.30;;;4.00;;
5341;SDS011;2693;48.822;9.062;2024-01-15T08:28:35;8.83;;;4.60;;
5341;SDS011;2693;48.822;9.062;2024-01-15T08:31:01;7.00;;;4.50;;
5341;SDS011;2693;48.822;9.062;2024-01-15T08:33:26;8.20;;;4.37;;
5341;SDS011;2693;48.822;9.062;2024-01-15T08:35:51;10.33;;;4.97;;
5341;SDS011;2693;48.822;9.062;2024-01-15T08:38:18;8.73;;;4.17;;
5341;SDS011;2693;48.822;9.062;2024-01-15T08:40:44;9.23;;;4.60;;
5341;SDS011;2693;48.822;9.062;2024-01-15T08:43:09;7.13;;;4.00;;
5341;SDS011;2693;48.822;9.062;2024-01-15T08:45:34;9.67;;;4.27;;
5341;SDS011;2693;48.822;9.062;2024-01-15T08:48:00;7.27;;;4.13;;
5341;SDS011;2693;48.822;9.062;2024-01-15T08:50:26;5.70;;;4.00;;
5341;SDS011;2693;48.822;9.062;2024-01-15T08:52:51;9.03;;;5.27;;
5341;SDS011;2693;48.822;9.062;2024-01-15T08:55:17;8.67;;;4.70;;
5341;SDS011;2693;48.822;9.062;2024-01-15T08:57:42;6.33;;;4.37;;
5341;SDS011;2693;48.822;9.062;2024-01-15T09:00:08;7.00;;;4.27;;
5341;SDS011;2693;48.822;9.062;2024-01-15T09:02:34;7.97;;;4.60;;
5341;SDS011;2693;48.822;9.062;2024-01-15T09:05:00;7.55;;;4.50;;
5341;SDS011;2693;48.822;9.062;2024-01-15T09:07:26;8.40;;;4.67;;
5341;SDS011;2693;48.822;9.062;2024-01-15T09:09:52;6.97;;;4.28;;
5341;SDS011;2693;48.822;9.062;2024-01-15T09:12:17;8.63;;;3.83;;
5341;SDS011;2693;48.822;9.062;2024-01-15T09:14:43;6.67;;;4.13;;
5341;SDS011;2693;48.822;9.062;2024-01-15T09:17:09;9.55;;;4.40;;
5341;SDS011;2693;48.822;9.062;2024-01-15T09:19:34;9.27;;;4.28;;
5341;SDS011;2693;48.822;9.062;2024-01-15T09:22:00;7.40;;;3.50;;
5341;SDS011;2693;48.822;9.062;2024-01-15T09:24:25;5.28;;;3.50;;
5341;SDS011;2693;48.822;9.062;2024-01-15T09:26:50;6.00;;;3.90;;
5341;SDS011;2693;48.822;9.062;2024-01-15T09:29:16;4.93;;;3.30;;
5341;SDS011;2693;48.822;9.062;2024-01-15T09:31:43;5.30;;;3.30;;
5341;SDS011;2693;48.822;9.062;2024-01-15T09:34:08;5.68;;;3.72;;
5341;SDS011;2693;48.822;9.062;2024-01-15T09:36:38;5.40;;;3.20;;
5341;SDS011;2693;48.822;9.062;2024-01-15T09:39:05;6.35;;;3.90;;
5341;SDS011;2693;48.822;9.062;2024-01-15T09:41:35;4.70;;;3.35;;
5341;SDS011;2693;48.822;9.062;2024-01-15T09:44:01;6.97;;;4.15;;
5341;SDS011;2693;48.822;9.062;2024-01-15T09:46:27;4.88;;;3.28;;
5341;SDS011;2693;48.822;9.062;2024-01-15T09:48:53;7.68;;;3.53;;
5341;SDS011;2693;48.822;9.062;2024-01-15T09:51:18;4.80;;;3.25;;
5341;SDS011;2693;48.822;9.062;2024-01-15T09:53:44;4.82;;;3.42;;
5341;SDS011;2693;48.822;9.062;2024-01-15T09:56:11;7.97;;;3.50;;
5341;SDS011;2693;48.822;9.062;2024-01-15T09:58:37;6.40;;;3.20;;
5341;SDS011;2693;48.822;9.062;2024-01-15T10:01:03;5.75;;;3.30;;
5341;SDS011;2693;48.822;9.062;2024-01-15T10:03:29;5.68;;;3.10;;
5341;SDS011;2693;48.822;9.062;2024-01-15T10:05:55;4.50;;;3.30;;
5341;SDS011;2693;48.822;9.062;2024-01-15T10:08:21;5.82;;;2.97;;
5341;SDS011;2693;48.822;9.062;2024-01-15T10:10:47;7.60;;;3.70;;
5341;SDS011;2693;48.822;9.062;2024-01-15T10:13:13;5.07;;;3.10;;
5341;SDS011;2693;48.822;9.062;2024-01-15T10:15:39;7.95;;;3.33;;
5341;SDS011;2693;48.822;9.062;2024-01-15T10:18:05;5.57;;;3.42;;
5341;SDS011;2693;48.822;9.062;2024-01-15T10:20:31;5.25;;;3.15;;
5341;SDS011;2693;48.822;9.062;2024-01-15T10:22:57;5.90;;;3.28;;
5341;SDS011;2693;48.822;9.062;2024-01-15T10:25:23;4.38;;;2.90;;
5341;SDS011;2693;48.822;9.062;2024-01-15T10:28:00;7.30;;;4.28;;
5341;SDS011;2693;48.822;9.062;2024-01-15T10:30:29;4.22;;;2.90;;
5341;SDS011;2693;48.822;9.062;2024-01-15T10:32:59;6.07;;;3.78;;
5341;SDS011;2693;48.822;9.062;2024-01-15T10:35:31;6.47;;;3.60;;
5341;SDS011;2693;48.822;9.062;2024-01-15T10:40:23;7.63;;;3.75;;
5341;SDS011;2693;48.822;9.062;2024-01-15T10:42:49;6.40;;;4.05;;
5341;SDS011;2693;48.822;9.062;2024-01-15T10:45:15;6.35;;;3.28;;
5341;SDS011;2693;48.822;9.062;2024-01-15T10:47:40;5.65;;;3.80;;
5341;SDS011;2693;48.822;9.062;2024-01-15T10:50:06;5.85;;;3.25;;
5341;SDS011;2693;48.822;9.062;2024-01-15T10:52:33;7.10;;;3.30;;
5341;SDS011;2693;48.822;9.062;2024-01-15T10:54:59;5.78;;;3.80;;
5341;SDS011;2693;48.822;9.062;2024-01-15T10:57:25;5.93;;;3.75;;
5341;SDS011;2693;48.822;9.062;2024-01-15T10:59:51;5.28;;;3.45;;
5341;SDS011;2693;48.822;9.062;2024-01-15T11:02:16;4.73;;;3.00;;
5341;SDS011;2693;48.822;9.062;2024-01-15T11:04:42;3.50;;;2.85;;
5341;SDS011;2693;48.822;9.062;2024-01-15T11:07:07;6.93;;;3.77;;
5341;SDS011;2693;48.822;9.062;2024-01-15T11:09:33;4.95;;;3.90;;
5341;SDS011;2693;48.822;9.062;2024-01-15T11:12:06;5.75;;;3.80;;
5341;SDS011;2693;48.822;9.062;2024-01-15T11:17:01;5.25;;;3.67;;
5341;SDS011;2693;48.822;9.062;2024-01-15T11:19:34;6.03;;;3.67;;
5341;SDS011;2693;48.822;9.062;2024-01-15T11:22:01;6.57;;;4.43;;
5341;SDS011;2693;48.822;9.062;2024-01-15T11:24:36;8.20;;;4.13;;
5341;SDS011;2693;48.822;9.062;2024-01-15T11:27:02;5.97;;;4.30;;
5341;SDS011;2693;48.822;9.062;2024-01-15T11:37:20;7.25;;;4.00;;
5341;SDS011;2693;48.822;9.062;2024-01-15T11:39:46;5.10;;;4.00;;
5341;SDS011;2693;48.822;9.062;2024-01-15T11:42:12;9.85;;;4.60;;
5341;SDS011;2693;48.822;9.062;2024-01-15T11:44:38;6.32;;;4.30;;
5341;SDS011;2693;48.822;9.062;2024-01-15T11:52:36;5.65;;;4.60;;
5341;SDS011;2693;48.822;9.062;2024-01-15T11:57:40;8.77;;;5.43;;
5341;SDS011;2693;48.822;9.062;2024-01-15T12:00:15;11.52;;;6.15;;
5341;SDS011;2693;48.822;9.062;2024-01-15T12:02:42;8.50;;;4.97;;
5341;SDS011;2693;48.822;9.062;2024-01-15T12:05:09;8.47;;;4.80;;
5341;SDS011;2693;48.822;9.062;2024-01-15T12:07:37;8.13;;;4.88;;
5341;SDS011;2693;48.822;9.062;2024-01-15T12:10:05;8.50;;;4.28;;
5341;SDS011;2693;48.822;9.062;2024-01-15T12:12:39;6.65;;;4.15;;
5341;SDS011;2693;48.822;9.062;2024-01-15T12:15:11;7.27;;;4.30;;
5341;SDS011;2693;48.822;9.062;2024-01-15T12:17:38;6.35;;;4.28;;
5341;SDS011;2693;48.822;9.062;2024-01-15T12:20:04;7.00;;;3.97;;
5341;SDS011;2693;48.822;9.062;2024-01-15T12:22:30;6.30;;;4.07;;
5341;SDS011;2693;48.822;9.062;2024-01-15T12:24:55;7.23;;;4.90;;
5341;SDS011;2693;48.822;9.062;2024-01-15T12:27:20;4.87;;;4.00;;
5341;SDS011;2693;48.822;9.062;2024-01-15T12:29:46;6.10;;;4.00;;
5341;SDS011;2693;48.822;9.062;2024-01-15T12:32:12;5.33;;;3.60;;
5341;SDS011;2693;48.822;9.062;2024-01-15T12:34:37;7.00;;;4.27;;
5341;SDS011;2693;48.822;9.062;2024-01-15T12:37:03;8.80;;;3.90;;
5341;SDS011;2693;48.822;9.062;2024-01-15T12:39:28;6.23;;;3.63;;
5341;SDS011;2693;48.822;9.062;2024-01-15T12:41:54;9.80;;;4.53;;
5341;SDS011;2693;48.822;9.062;2024-01-15T12:44:20;6.73;;;4.03;;
5341;SDS011;2693;48.822;9.062;2024-01-15T12:46:45;4.90;;;3.47;;
5341;SDS011;2693;48.822;9.062;2024-01-15T12:49:12;6.82;;;3.72;;
5341;SDS011;2693;48.822;9.062;2024-01-15T12:51:38;5.10;;;3.43;;
5341;SDS011;2693;48.822;9.062;2024-01-15T12:54:03;10.02;;;4.50;;
5341;SDS011;2693;48.822;9.062;2024-01-15T12:56:29;5.93;;;3.47;;
5341;SDS011;2693;48.822;9.062;2024-01-15T12:58:54;5.63;;;3.33;;
5341;SDS011;2693;48.822;9.062;2024-01-15T13:01:19;6.97;;;3.88;;
5341;SDS011;2693;48.822;9.062;2024-01-15T13:03:46;7.30;;;3.83;;
5341;SDS011;2693;48.822;9.062;2024-01-15T13:06:12;6.07;;;4.00;;
5341;SDS011;2693;48.822;9.062;2024-01-15T13:08:37;4.80;;;3.67;;
5341;SDS011;2693;48.822;9.062;2024-01-15T13:11:03;6.32;;;4.35;;
5341;SDS011;2693;48.822;9.062;2024-01-15T13:13:28;4.03;;;3.28;;
5341;SDS011;2693;48.822;9.062;2024-01-15T13:15:54;6.70;;;4.07;;
5341;SDS011;2693;48.822;9.062;2024-01-15T13:18:19;5.80;;;4.37;;
5341;SDS011;2693;48.822;9.062;2024-01-15T13:20:44;4.97;;;3.30;;
5341;SDS011;2693;48.822;9.062;2024-01-15T13:23:10;4.63;;;3.40;;
5341;SDS011;2693;48.822;9.062;2024-01-15T13:25:36;3.88;;;3.08;;
5341;SDS011;2693;48.822;9.062;2024-01-15T13:28:03;5.73;;;3.17;;
5341;SDS011;2693;48.822;9.062;2024-01-15T13:30:29;6.47;;;3.97;;
5341;SDS011;2693;48.822;9.062;2024-01-15T13:32:56;7.00;;;3.73;;
5341;SDS011;2693;48.822;9.062;2024-01-15T13:35:22;3.67;;;3.00;;
5341;SDS011;2693;48.822;9.062;2024-01-15T13:37:48;4.23;;;3.50;;
5341;SDS011;2693;48.822;9.062;2024-01-15T13:40:13;4.78;;;2.97;;
5341;SDS011;2693;48.822;9.062;2024-01-15T13:42:44;6.00;;;3.03;;
5341;SDS011;2693;48.822;9.062;2024-01-15T13:45:13;7.85;;;3.30;;
5341;SDS011;2693;48.822;9.062;2024-01-15T13:47:40;5.10;;;3.13;;
5341;SDS011;2693;48.822;9.062;2024-01-15T13:50:07;3.27;;;2.77;;
5341;SDS011;2693;48.822;9.062;2024-01-15T13:52:32;4.38;;;2.90;;
5341;SDS011;2693;48.822;9.062;2024-01-15T13:54:58;4.27;;;2.80;;
5341;SDS011;2693;48.822;9.062;2024-01-15T13:57:23;3.63;;;3.10;;
5341;SDS011;2693;48.822;9.062;2024-01-15T13:59:48;5.57;;;3.07;;
5341;SDS011;2693;48.822;9.062;2024-01-15T14:02:14;4.70;;;3.55;;
5341;SDS011;2693;48.822;9.062;2024-01-15T14:04:40;5.32;;;3.45;;
5341;SDS011;2693;48.822;9.062;2024-01-15T14:07:06;3.78;;;3.00;;
5341;SDS011;2693;48.822;9.062;2024-01-15T14:09:31;4.87;;;3.70;;
5341;SDS011;2693;48.822;9.062;2024-01-15T14:11:57;4.17;;;3.03;;
5341;SDS011;2693;48.822;9.062;2024-01-15T14:14:22;4.67;;;3.07;;
5341;SDS011;2693;48.822;9.062;2024-01-15T14:16:48;3.90;;;3.23;;
5341;SDS011;2693;48.822;9.062;2024-01-15T14:19:14;4.80;;;3.27;;
5341;SDS011;2693;48.822;9.062;2024-01-15T14:21:40;5.72;;;3.17;;
5341;SDS011;2693;48.822;9.062;2024-01-15T14:24:05;6.07;;;4.07;;
5341;SDS011;2693;48.822;9.062;2024-01-15T14:26:31;5.67;;;3.80;;
5341;SDS011;2693;48.822;9.062;2024-01-15T14:28:57;4.15;;;3.45;;
5341;SDS011;2693;48.822;9.062;2024-01-15T14:31:23;5.70;;;4.03;;
5341;SDS011;2693;48.822;9.062;2024-01-15T14:33:51;5.27;;;3.93;;
5341;SDS011;2693;48.822;9.062;2024-01-15T14:36:19;5.77;;;4.43;;
5341;SDS011;2693;48.822;9.062;2024-01-15T14:38:45;6.13;;;4.03;;
5341;SDS011;2693;48.822;9.062;2024-01-15T14:41:10;6.73;;;4.63;;
5341;SDS011;2693;48.822;9.062;2024-01-15T14:43:35;7.63;;;4.75;;
5341;SDS011;2693;48.822;9.062;2024-01-15T14:46:01;6.33;;;4.30;;
5341;SDS011;2693;48.822;9.062;2024-01-15T14:48:26;6.90;;;5.07;;
5341;SDS011;2693;48.822;9.062;2024-01-15T14:50:52;7.40;;;5.70;;
5341;SDS011;2693;48.822;9.062;2024-01-15T14:53:17;6.50;;;5.03;;
5341;SDS011;2693;48.822;9.062;2024-01-15T14:55:43;7.17;;;5.07;;
5341;SDS011;2693;48.822;9.062;2024-01-15T14:58:08;8.73;;;5.30;;
5341;SDS011;2693;48.822;9.062;2024-01-15T15:00:34;7.50;;;5.10;;
5341;SDS011;2693;48.822;9.062;2024-01-15T15:02:59;9.60;;;5.47;;
5341;SDS011;2693;48.822;9.062;2024-01-15T15:05:24;8.17;;;5.27;;
5341;SDS011;2693;48.822;9.062;2024-01-15T15:07:50;5.67;;;4.70;;
5341;SDS011;2693;48.822;9.062;2024-01-15T15:10:16;6.40;;;5.30;;
5341;SDS011;2693;48.822;9.062;2024-01-15T15:12:42;9.10;;;5.37;;
5341;SDS011;2693;48.822;9.062;2024-01-15T15:15:07;6.83;;;4.87;;
5341;SDS011;2693;48.822;9.062;2024-01-15T15:17:33;10.20;;;5.60;;
5341;SDS011;2693;48.822;9.062;2024-01-15T15:19:59;10.83;;;6.03;;
5341;SDS011;2693;48.822;9.062;2024-01-15T15:22:27;9.53;;;5.67;;